Pagrindinis puslapis
METAR-TAF:

METAR-TAF

Oro uostai :

Lake City, Florida, Jungtinės Amerikos Valstijos

platuma: 30-10-55N, ilguma: 082-34-37W, Aukštis: 61 m

Dabartinis oras

Ataskaita buvo paskelbta 25 minutes, ne 07:35 UTC
Vėjas 11 kt iš Šiaurės Vakarų
Temperatūra 7°C
Drėgmė 76%
Slėgis 1018 hPa
Matomumas: 16.1 km
Giedras dangus

METAR: KLCQ 270735Z AUTO 31011KT 10SM CLR 07/03 A3007 RMK AO2

Laikas: 03:00 (08:00 UTC)


TAF: trūkstamas

Orai ataskaitas ir orų prognozės (METAR, TAF).

turimą stotys yra geltonos ir raudonos taškus žemėlapyje.

Perkelti pele per norėdami pamatyti stoties vardą.

Tada spustelėkite, norėdami matyti oro stebėjimo ir prognozės.

Norėdami pakeisti žemėlapį: spustelėkite ant žalios mygtukų su juodo kryžiaus žemyn,; žalią mygtuką su brūkšneliu, jei norite nutolinti; arba žalių rodyklių gretimoms žemėlapius.


METAR-TAF: